South Effingham, New Hampshire
Current Conditions -  °F | °C
As of 8:54 AM on Sunday 23 Nov 2014 (Local Time) from KIZG Reporting Station
Clear Clear  
Wind Chill: 50°   Ceiling: Unl
Heat Index: 50°   Visibility: 10mi
Dew Point: 39°   Wind: 7mph
Humidity: 66%   Direction: NA
Pressure: 30.03"   Gusts: NA
Location:  43.7°N, 70.98°W
Report Text: KIZG 231354Z AUTO VRB06KT 10SM CLR 10/04 A3003 RMK AO2 SLP174 T01000039
Loading
Personal Weather Stations






























Interactive Weather Map New forecast layout! Learn more

10-Day Weather Forecast

Advertisements
Track Severe Weather on mobile